CMA CGM Lamartine — 2DMF2 — position and weather

sailwx.info

Track history (hours):
 
Tides and Currents Weather Stations Pressure Air Temp Water Temp Dewpoint Dewpoint Depression Visibility Wind Speed Wind Dir Waves Ship Positions

CMA CGM Lamartine

Last reported at 2017-Nov-25 14:57 UTC. Time now 2017-Dec-11 23:04 UTC.
Position N 36°24' E 014°42'.
Warning: this ship's position is 16 days out of date.

Length 299 m; draft 12 m.

Type: Ship (hazmat cat A). MMSI: 235080187.

Date/timePositionNaut miles runAvg speedWind from/ knotsBaromVisibWave heightAir tempDewpointWater temp
2017-Nov-25 14:57N 36°24' E 014°42'818.1
2017-Nov-25 14:30N 36°27' E 014°32'917.9
2017-Nov-25 14:00N 36°30' E 014°22'917.9
2017-Nov-25 13:30N 36°33' E 014°11'917.9
2017-Nov-25 13:00N 36°36' E 014°01'918.0
2017-Nov-25 12:30N 36°38' E 013°50'4017.7
2017-Nov-25 10:16N 36°51' E 013°03'12617.5
2017-Nov-25 03:04N 37°31' E 010°33'318.4
2017-Nov-25 02:55N 37°32' E 010°30'818.5
2017-Nov-25 02:30N 37°33' E 010°20'918.7
2017-Nov-25 02:00N 37°34' E 010°08'918.3
2017-Nov-25 01:30N 37°33' E 009°57'3018.4
2017-Nov-24 23:52N 37°26' E 009°20'5017.0
2017-Nov-24 20:57N 37°18' E 008°19'716.7
2017-Nov-24 20:30N 37°18' E 008°09'1316.8
2017-Nov-24 19:45N 37°18' E 007°53'516.9
2017-Nov-24 19:27N 37°18' E 007°47'817.4
2017-Nov-24 19:00N 37°18' E 007°37'4317.9
2017-Nov-24 16:35N 37°20' E 006°43'218.1
2017-Nov-24 16:28N 37°20' E 006°40'1817.8
2017-Nov-24 15:28N 37°20' E 006°18'2217.9
2017-Nov-24 14:15N 37°19' E 005°51'1817.7
2017-Nov-24 13:13N 37°18' E 005°27'417.6
2017-Nov-24 13:00N 37°18' E 005°23'1017.8
2017-Nov-24 12:26N 37°17' E 005°10'817.8
2017-Nov-24 12:00N 37°17' E 005°00'917.7
2017-Nov-24 11:30N 37°17' E 004°49'917.7
2017-Nov-24 10:59N 37°16' E 004°38'817.9
2017-Nov-24 10:30N 37°16' E 004°27'1417.7
2017-Nov-24 09:44N 37°15' E 004°10'417.4
2017-Nov-24 09:30N 37°15' E 004°05'917.9
2017-Nov-24 09:00N 37°15' E 003°54'1020.7
2017-Nov-24 08:30N 37°14' E 003°41'1020.8
2017-Nov-24 08:00N 37°14' E 003°28'1020.9
2017-Nov-24 07:30N 37°13' E 003°15'1019.0
2017-Nov-24 07:00N 37°13' E 003°03'917.8
2017-Nov-24 06:30N 37°12' E 002°52'918.0
2017-Nov-24 06:00N 37°10' E 002°41'917.9
2017-Nov-24 05:30N 37°07' E 002°30'917.9
2017-Nov-24 05:00N 37°06' E 002°19'917.9
2017-Nov-24 04:30N 37°04' E 002°08'917.9
2017-Nov-24 04:00N 37°02' E 001°57'917.9
2017-Nov-24 03:30N 37°00' E 001°46'918.2
2017-Nov-24 03:00N 36°58' E 001°35'918.2
2017-Nov-24 02:30N 36°56' E 001°24'917.9
2017-Nov-24 02:00N 36°54' E 001°13'917.9
2017-Nov-24 01:30N 36°52' E 001°02'917.9
2017-Nov-24 01:00N 36°50' E 000°51'917.9
2017-Nov-24 00:29N 36°48' E 000°39'917.9
2017-Nov-24 00:00N 36°47' E 000°29'917.8
2017-Nov-23 23:30N 36°45' E 000°18'917.6
2017-Nov-23 23:00N 36°43' E 000°07'917.8
2017-Nov-23 22:30N 36°41' W 000°03'1517.7
2017-Nov-23 21:41N 36°37' W 000°21'317.6
2017-Nov-23 21:30N 36°37' W 000°25'917.6
2017-Nov-23 21:00N 36°35' W 000°36'917.6
2017-Nov-23 20:30N 36°33' W 000°46'917.9
2017-Nov-23 19:59N 36°31' W 000°58'1417.9
2017-Nov-23 19:11N 36°28' W 001°15'317.8
2017-Nov-23 19:00N 36°28' W 001°19'917.8
2017-Nov-23 18:29N 36°25' W 001°30'918.1
2017-Nov-23 18:00N 36°24' W 001°41'1218.1
2017-Nov-23 17:22N 36°21' W 001°55'718.1
2017-Nov-23 17:00N 36°20' W 002°03'15617.8
2017-Nov-23 08:13N 35°60' W 005°15'418.4
2017-Nov-23 08:00N 35°59' W 005°20'5718.7
2017-Nov-23 04:59N 35°54' W 006°29'1517.4
2017-Nov-23 04:06N 35°54' W 006°48'217.1
2017-Nov-23 04:00N 35°54' W 006°50'917.4
2017-Nov-23 03:30N 35°54' W 007°01'917.4
2017-Nov-23 03:00N 35°54' W 007°11'917.5
2017-Nov-23 02:30N 35°55' W 007°22'917.2
2017-Nov-23 02:00N 35°58' W 007°32'917.6
2017-Nov-23 01:30N 36°01' W 007°42'917.6
2017-Nov-23 01:00N 36°03' W 007°53'917.5
2017-Nov-23 00:30N 36°06' W 008°03'917.4
2017-Nov-23 00:00N 36°08' W 008°14'917.5
2017-Nov-22 23:30N 36°11' W 008°24'917.6
2017-Nov-22 23:00N 36°13' W 008°35'1017.5
2017-Nov-22 22:27N 36°16' W 008°46'817.5
2017-Nov-22 22:00N 36°18' W 008°55'917.4
2017-Nov-22 21:30N 36°21' W 009°06'917.5
2017-Nov-22 21:00N 36°23' W 009°16'917.6
2017-Nov-22 20:30N 36°26' W 009°27'918.3
2017-Nov-22 20:00N 36°29' W 009°37'917.8
2017-Nov-22 19:30N 36°31' W 009°48'  
Track history (hours):
 
Tides and Currents Weather Stations Pressure Air Temp Water Temp Dewpoint Dewpoint Depression Visibility Wind Speed Wind Dir Waves Ship Positions

CMA CGM Lamartine

Last reported at 2017-Nov-25 14:57 UTC. Time now 2017-Dec-11 23:04 UTC.
Position N 36°24' E 014°42'.
Warning: this ship's position is 16 days out of date.

Length 299 m; draft 12 m.

Type: Ship (hazmat cat A). MMSI: 235080187.

Date/timePositionNaut miles runAvg speedWind from/ knotsBaromVisibWave heightAir tempDewpointWater temp
2017-Nov-25 14:57N 36°24' E 014°42'818.1
2017-Nov-25 14:30N 36°27' E 014°32'917.9
2017-Nov-25 14:00N 36°30' E 014°22'917.9
2017-Nov-25 13:30N 36°33' E 014°11'917.9
2017-Nov-25 13:00N 36°36' E 014°01'918.0
2017-Nov-25 12:30N 36°38' E 013°50'4017.7
2017-Nov-25 10:16N 36°51' E 013°03'12617.5
2017-Nov-25 03:04N 37°31' E 010°33'318.4
2017-Nov-25 02:55N 37°32' E 010°30'818.5
2017-Nov-25 02:30N 37°33' E 010°20'918.7
2017-Nov-25 02:00N 37°34' E 010°08'918.3
2017-Nov-25 01:30N 37°33' E 009°57'3018.4
2017-Nov-24 23:52N 37°26' E 009°20'5017.0
2017-Nov-24 20:57N 37°18' E 008°19'716.7
2017-Nov-24 20:30N 37°18' E 008°09'1316.8
2017-Nov-24 19:45N 37°18' E 007°53'516.9
2017-Nov-24 19:27N 37°18' E 007°47'817.4
2017-Nov-24 19:00N 37°18' E 007°37'4317.9
2017-Nov-24 16:35N 37°20' E 006°43'218.1
2017-Nov-24 16:28N 37°20' E 006°40'1817.8
2017-Nov-24 15:28N 37°20' E 006°18'2217.9
2017-Nov-24 14:15N 37°19' E 005°51'1817.7
2017-Nov-24 13:13N 37°18' E 005°27'417.6
2017-Nov-24 13:00N 37°18' E 005°23'1017.8
2017-Nov-24 12:26N 37°17' E 005°10'817.8
2017-Nov-24 12:00N 37°17' E 005°00'917.7
2017-Nov-24 11:30N 37°17' E 004°49'917.7
2017-Nov-24 10:59N 37°16' E 004°38'817.9
2017-Nov-24 10:30N 37°16' E 004°27'1417.7
2017-Nov-24 09:44N 37°15' E 004°10'417.4
2017-Nov-24 09:30N 37°15' E 004°05'917.9
2017-Nov-24 09:00N 37°15' E 003°54'1020.7
2017-Nov-24 08:30N 37°14' E 003°41'1020.8
2017-Nov-24 08:00N 37°14' E 003°28'1020.9
2017-Nov-24 07:30N 37°13' E 003°15'1019.0
2017-Nov-24 07:00N 37°13' E 003°03'917.8
2017-Nov-24 06:30N 37°12' E 002°52'918.0
2017-Nov-24 06:00N 37°10' E 002°41'917.9
2017-Nov-24 05:30N 37°07' E 002°30'917.9
2017-Nov-24 05:00N 37°06' E 002°19'917.9
2017-Nov-24 04:30N 37°04' E 002°08'917.9
2017-Nov-24 04:00N 37°02' E 001°57'917.9
2017-Nov-24 03:30N 37°00' E 001°46'918.2
2017-Nov-24 03:00N 36°58' E 001°35'918.2
2017-Nov-24 02:30N 36°56' E 001°24'917.9
2017-Nov-24 02:00N 36°54' E 001°13'917.9
2017-Nov-24 01:30N 36°52' E 001°02'917.9
2017-Nov-24 01:00N 36°50' E 000°51'917.9
2017-Nov-24 00:29N 36°48' E 000°39'917.9
2017-Nov-24 00:00N 36°47' E 000°29'917.8
2017-Nov-23 23:30N 36°45' E 000°18'917.6
2017-Nov-23 23:00N 36°43' E 000°07'917.8
2017-Nov-23 22:30N 36°41' W 000°03'1517.7
2017-Nov-23 21:41N 36°37' W 000°21'317.6
2017-Nov-23 21:30N 36°37' W 000°25'917.6
2017-Nov-23 21:00N 36°35' W 000°36'917.6
2017-Nov-23 20:30N 36°33' W 000°46'917.9
2017-Nov-23 19:59N 36°31' W 000°58'1417.9
2017-Nov-23 19:11N 36°28' W 001°15'317.8
2017-Nov-23 19:00N 36°28' W 001°19'917.8
2017-Nov-23 18:29N 36°25' W 001°30'918.1
2017-Nov-23 18:00N 36°24' W 001°41'1218.1
2017-Nov-23 17:22N 36°21' W 001°55'718.1
2017-Nov-23 17:00N 36°20' W 002°03'15617.8
2017-Nov-23 08:13N 35°60' W 005°15'418.4
2017-Nov-23 08:00N 35°59' W 005°20'5718.7
2017-Nov-23 04:59N 35°54' W 006°29'1517.4
2017-Nov-23 04:06N 35°54' W 006°48'217.1
2017-Nov-23 04:00N 35°54' W 006°50'917.4
2017-Nov-23 03:30N 35°54' W 007°01'917.4
2017-Nov-23 03:00N 35°54' W 007°11'917.5
2017-Nov-23 02:30N 35°55' W 007°22'917.2
2017-Nov-23 02:00N 35°58' W 007°32'917.6
2017-Nov-23 01:30N 36°01' W 007°42'917.6
2017-Nov-23 01:00N 36°03' W 007°53'917.5
2017-Nov-23 00:30N 36°06' W 008°03'917.4
2017-Nov-23 00:00N 36°08' W 008°14'917.5
2017-Nov-22 23:30N 36°11' W 008°24'917.6
2017-Nov-22 23:00N 36°13' W 008°35'1017.5
2017-Nov-22 22:27N 36°16' W 008°46'817.5
2017-Nov-22 22:00N 36°18' W 008°55'917.4
2017-Nov-22 21:30N 36°21' W 009°06'917.5
2017-Nov-22 21:00N 36°23' W 009°16'917.6
2017-Nov-22 20:30N 36°26' W 009°27'918.3
2017-Nov-22 20:00N 36°29' W 009°37'917.8
2017-Nov-22 19:30N 36°31' W 009°48'  

Dump ship's entire track history